sensor_id;sensor_type;location;lat;lon;timestamp;pressure;altitude;pressure_sealevel;temperature;humidity
36254;BME280;22291;52.250;21.228;2023-04-24T00:00:46;99456.41;;;12.27;45.05
36254;BME280;22291;52.250;21.228;2023-04-24T00:03:14;99448.73;;;12.23;45.16
36254;BME280;22291;52.250;21.228;2023-04-24T00:05:41;99448.73;;;12.17;44.91
36254;BME280;22291;52.250;21.228;2023-04-24T00:08:07;99447.61;;;12.12;45.10
36254;BME280;22291;52.250;21.228;2023-04-24T00:10:33;99434.53;;;11.95;45.44
36254;BME280;22291;52.250;21.228;2023-04-24T00:13:00;99434.53;;;11.95;45.44
36254;BME280;22291;52.250;21.228;2023-04-24T00:15:26;99435.97;;;11.87;45.63
36254;BME280;22291;52.250;21.228;2023-04-24T00:17:52;99432.22;;;11.79;46.22
36254;BME280;22291;52.250;21.228;2023-04-24T00:20:20;99428.51;;;11.71;46.46
36254;BME280;22291;52.250;21.228;2023-04-24T00:22:46;99431.64;;;11.67;46.42
36254;BME280;22291;52.250;21.228;2023-04-24T00:25:12;99427.80;;;11.62;46.46
36254;BME280;22291;52.250;21.228;2023-04-24T00:27:39;99428.59;;;11.56;46.53
36254;BME280;22291;52.250;21.228;2023-04-24T00:30:07;99422.95;;;11.49;47.22
36254;BME280;22291;52.250;21.228;2023-04-24T00:32:34;99416.84;;;11.46;47.34
36254;BME280;22291;52.250;21.228;2023-04-24T00:35:02;99417.52;;;11.43;47.06
36254;BME280;22291;52.250;21.228;2023-04-24T00:37:30;99414.56;;;11.36;47.62
36254;BME280;22291;52.250;21.228;2023-04-24T00:39:56;99416.92;;;11.31;47.63
36254;BME280;22291;52.250;21.228;2023-04-24T00:42:23;99419.27;;;11.27;47.62
36254;BME280;22291;52.250;21.228;2023-04-24T00:44:51;99418.94;;;11.22;47.72
36254;BME280;22291;52.250;21.228;2023-04-24T00:47:19;99415.88;;;11.17;47.71
36254;BME280;22291;52.250;21.228;2023-04-24T00:49:47;99410.22;;;11.10;48.38
36254;BME280;22291;52.250;21.228;2023-04-24T00:52:13;99417.28;;;11.02;48.20
36254;BME280;22291;52.250;21.228;2023-04-24T00:54:42;99413.43;;;10.97;48.86
36254;BME280;22291;52.250;21.228;2023-04-24T00:57:08;99414.91;;;10.95;48.60
36254;BME280;22291;52.250;21.228;2023-04-24T00:59:34;99411.27;;;10.91;49.08
36254;BME280;22291;52.250;21.228;2023-04-24T01:02:01;99413.76;;;10.90;49.02
36254;BME280;22291;52.250;21.228;2023-04-24T01:04:28;99412.73;;;10.88;49.02
36254;BME280;22291;52.250;21.228;2023-04-24T01:06:55;99415.31;;;10.84;48.97
36254;BME280;22291;52.250;21.228;2023-04-24T01:09:23;99412.90;;;10.77;49.71
36254;BME280;22291;52.250;21.228;2023-04-24T01:11:50;99409.05;;;10.72;50.07
36254;BME280;22291;52.250;21.228;2023-04-24T01:14:17;99407.33;;;10.67;50.33
36254;BME280;22291;52.250;21.228;2023-04-24T01:16:44;99411.38;;;10.67;50.33
36254;BME280;22291;52.250;21.228;2023-04-24T01:19:11;99410.84;;;10.68;50.67
36254;BME280;22291;52.250;21.228;2023-04-24T01:21:39;99415.89;;;10.69;50.43
36254;BME280;22291;52.250;21.228;2023-04-24T01:24:06;99412.08;;;10.70;50.46
36254;BME280;22291;52.250;21.228;2023-04-24T01:26:34;99414.70;;;10.73;50.82
36254;BME280;22291;52.250;21.228;2023-04-24T01:29:01;99420.31;;;10.74;50.79
36254;BME280;22291;52.250;21.228;2023-04-24T01:31:28;99410.28;;;10.74;50.54
36254;BME280;22291;52.250;21.228;2023-04-24T01:33:57;99403.52;;;10.74;50.24
36254;BME280;22291;52.250;21.228;2023-04-24T01:36:24;99401.06;;;10.75;50.89
36254;BME280;22291;52.250;21.228;2023-04-24T01:38:52;99401.06;;;10.75;50.72
36254;BME280;22291;52.250;21.228;2023-04-24T01:41:19;99397.33;;;10.74;51.30
36254;BME280;22291;52.250;21.228;2023-04-24T01:43:47;99407.94;;;10.73;50.72
36254;BME280;22291;52.250;21.228;2023-04-24T01:46:15;99394.74;;;10.71;51.04
36254;BME280;22291;52.250;21.228;2023-04-24T01:48:41;99407.45;;;10.71;50.89
36254;BME280;22291;52.250;21.228;2023-04-24T01:51:08;99410.16;;;10.71;51.04
36254;BME280;22291;52.250;21.228;2023-04-24T01:53:34;99405.23;;;10.73;50.98
36254;BME280;22291;52.250;21.228;2023-04-24T01:56:01;99396.09;;;10.71;51.21
36254;BME280;22291;52.250;21.228;2023-04-24T01:58:28;99404.30;;;10.69;51.34
36254;BME280;22291;52.250;21.228;2023-04-24T02:00:56;99399.21;;;10.67;51.32
36254;BME280;22291;52.250;21.228;2023-04-24T02:03:26;99409.48;;;10.68;51.26
36254;BME280;22291;52.250;21.228;2023-04-24T02:05:52;99393.48;;;10.69;51.26
36254;BME280;22291;52.250;21.228;2023-04-24T02:08:18;99385.69;;;10.67;51.31
36254;BME280;22291;52.250;21.228;2023-04-24T02:10:44;99387.81;;;10.61;51.44
36254;BME280;22291;52.250;21.228;2023-04-24T02:13:10;99392.31;;;10.57;51.73
36254;BME280;22291;52.250;21.228;2023-04-24T02:15:36;99393.66;;;10.57;51.33
36254;BME280;22291;52.250;21.228;2023-04-24T02:18:02;99392.64;;;10.56;51.79
36254;BME280;22291;52.250;21.228;2023-04-24T02:20:29;99402.93;;;10.62;51.72
36254;BME280;22291;52.250;21.228;2023-04-24T02:22:55;99380.89;;;10.52;51.58
36254;BME280;22291;52.250;21.228;2023-04-24T02:25:21;99377.81;;;10.47;51.95
36254;BME280;22291;52.250;21.228;2023-04-24T02:27:48;99378.58;;;10.41;51.92
36254;BME280;22291;52.250;21.228;2023-04-24T02:30:14;99370.67;;;10.36;52.20
36254;BME280;22291;52.250;21.228;2023-04-24T02:32:40;99376.24;;;10.31;52.16
36254;BME280;22291;52.250;21.228;2023-04-24T02:35:09;99376.57;;;10.29;52.06
36254;BME280;22291;52.250;21.228;2023-04-24T02:37:35;99372.62;;;10.27;52.27
36254;BME280;22291;52.250;21.228;2023-04-24T02:40:01;99364.39;;;10.23;52.58
36254;BME280;22291;52.250;21.228;2023-04-24T02:42:28;99366.72;;;10.19;52.84
36254;BME280;22291;52.250;21.228;2023-04-24T02:44:54;99358.11;;;10.10;52.72
36254;BME280;22291;52.250;21.228;2023-04-24T02:47:21;99359.19;;;10.03;52.88
36254;BME280;22291;52.250;21.228;2023-04-24T02:49:47;99354.88;;;9.96;53.39
36254;BME280;22291;52.250;21.228;2023-04-24T02:52:13;99352.91;;;9.90;53.53
36254;BME280;22291;52.250;21.228;2023-04-24T02:54:40;99346.58;;;9.86;53.74
36254;BME280;22291;52.250;21.228;2023-04-24T02:57:07;99351.20;;;9.86;53.81
36254;BME280;22291;52.250;21.228;2023-04-24T02:59:33;99352.87;;;9.84;54.21
36254;BME280;22291;52.250;21.228;2023-04-24T03:01:59;99346.45;;;9.83;54.11
36254;BME280;22291;52.250;21.228;2023-04-24T03:04:26;99345.50;;;9.79;54.29
36254;BME280;22291;52.250;21.228;2023-04-24T03:06:53;99342.59;;;9.78;54.20
36254;BME280;22291;52.250;21.228;2023-04-24T03:09:23;99352.93;;;9.76;55.48
36254;BME280;22291;52.250;21.228;2023-04-24T03:11:49;99348.71;;;9.72;55.00
36254;BME280;22291;52.250;21.228;2023-04-24T03:14:16;99345.23;;;9.71;54.99
36254;BME280;22291;52.250;21.228;2023-04-24T03:16:42;99348.50;;;9.71;55.18
36254;BME280;22291;52.250;21.228;2023-04-24T03:19:08;99347.93;;;9.71;55.08
36254;BME280;22291;52.250;21.228;2023-04-24T03:21:35;99354.68;;;9.71;55.28
36254;BME280;22291;52.250;21.228;2023-04-24T03:24:02;99356.27;;;9.72;55.05
36254;BME280;22291;52.250;21.228;2023-04-24T03:26:28;99351.33;;;9.75;55.14
36254;BME280;22291;52.250;21.228;2023-04-24T03:28:54;99355.63;;;9.76;55.16
36254;BME280;22291;52.250;21.228;2023-04-24T03:31:20;99352.36;;;9.76;55.23
36254;BME280;22291;52.250;21.228;2023-04-24T03:33:46;99353.14;;;9.77;55.58
36254;BME280;22291;52.250;21.228;2023-04-24T03:36:13;99356.73;;;9.75;54.96
36254;BME280;22291;52.250;21.228;2023-04-24T03:38:39;99360.78;;;9.75;55.05
36254;BME280;22291;52.250;21.228;2023-04-24T03:41:05;99362.13;;;9.75;55.39
36254;BME280;22291;52.250;21.228;2023-04-24T03:43:32;99358.97;;;9.72;55.43
36254;BME280;22291;52.250;21.228;2023-04-24T03:46:00;99358.41;;;9.73;55.09
36254;BME280;22291;52.250;21.228;2023-04-24T03:48:26;99355.46;;;9.72;55.65
36254;BME280;22291;52.250;21.228;2023-04-24T03:50:52;99357.95;;;9.71;55.68
36254;BME280;22291;52.250;21.228;2023-04-24T03:53:19;99359.63;;;9.69;55.93
36254;BME280;22291;52.250;21.228;2023-04-24T03:55:46;99356.00;;;9.65;55.61
36254;BME280;22291;52.250;21.228;2023-04-24T03:58:13;99360.37;;;9.64;56.18
36254;BME280;22291;52.250;21.228;2023-04-24T04:00:40;99358.07;;;9.60;56.71
36254;BME280;22291;52.250;21.228;2023-04-24T04:03:06;99358.72;;;9.57;57.01
36254;BME280;22291;52.250;21.228;2023-04-24T04:05:32;99355.23;;;9.56;57.00
36254;BME280;22291;52.250;21.228;2023-04-24T04:07:58;99361.20;;;9.56;57.07
36254;BME280;22291;52.250;21.228;2023-04-24T04:10:24;99365.25;;;9.56;57.16
36254;BME280;22291;52.250;21.228;2023-04-24T04:12:51;99366.81;;;9.57;57.36
36254;BME280;22291;52.250;21.228;2023-04-24T04:15:17;99367.06;;;9.58;57.43
36254;BME280;22291;52.250;21.228;2023-04-24T04:17:44;99368.66;;;9.59;57.36
36254;BME280;22291;52.250;21.228;2023-04-24T04:20:12;99365.95;;;9.59;57.64
36254;BME280;22291;52.250;21.228;2023-04-24T04:22:40;99373.48;;;9.59;57.64
36254;BME280;22291;52.250;21.228;2023-04-24T04:25:08;99369.66;;;9.60;57.81
36254;BME280;22291;52.250;21.228;2023-04-24T04:27:35;99379.34;;;9.61;57.97
36254;BME280;22291;52.250;21.228;2023-04-24T04:30:03;99374.52;;;9.61;58.20
36254;BME280;22291;52.250;21.228;2023-04-24T04:32:32;99373.95;;;9.61;58.14
36254;BME280;22291;52.250;21.228;2023-04-24T04:34:59;99373.30;;;9.64;58.62
36254;BME280;22291;52.250;21.228;2023-04-24T04:37:30;99378.70;;;9.64;58.61
36254;BME280;22291;52.250;21.228;2023-04-24T04:39:59;99371.31;;;9.67;58.33
36254;BME280;22291;52.250;21.228;2023-04-24T04:42:27;99374.94;;;9.71;58.68
36254;BME280;22291;52.250;21.228;2023-04-24T04:44:54;99373.50;;;9.74;59.04
36254;BME280;22291;52.250;21.228;2023-04-24T04:47:22;99361.89;;;9.73;58.81
36254;BME280;22291;52.250;21.228;2023-04-24T04:49:50;99367.11;;;9.79;58.86
36254;BME280;22291;52.250;21.228;2023-04-24T04:52:19;99367.48;;;9.83;58.94
36254;BME280;22291;52.250;21.228;2023-04-24T04:54:45;99373.02;;;9.87;58.94
36254;BME280;22291;52.250;21.228;2023-04-24T04:57:12;99378.81;;;9.91;59.13
36254;BME280;22291;52.250;21.228;2023-04-24T04:59:39;99377.91;;;9.94;59.38
36254;BME280;22291;52.250;21.228;2023-04-24T05:02:07;99379.41;;;9.97;59.54
36254;BME280;22291;52.250;21.228;2023-04-24T05:04:34;99364.22;;;9.99;59.91
36254;BME280;22291;52.250;21.228;2023-04-24T05:07:01;99372.27;;;10.07;59.70
36254;BME280;22291;52.250;21.228;2023-04-24T05:09:27;99372.89;;;10.13;59.68
36254;BME280;22291;52.250;21.228;2023-04-24T05:11:56;99364.34;;;10.17;59.56
36254;BME280;22291;52.250;21.228;2023-04-24T05:14:22;99365.17;;;10.24;59.57
36254;BME280;22291;52.250;21.228;2023-04-24T05:16:48;99369.03;;;10.29;59.78
36254;BME280;22291;52.250;21.228;2023-04-24T05:19:14;99360.30;;;10.32;59.58
36254;BME280;22291;52.250;21.228;2023-04-24T05:21:41;99358.96;;;10.38;59.54
36254;BME280;22291;52.250;21.228;2023-04-24T05:24:29;99368.14;;;10.46;59.89
36254;BME280;22291;52.250;21.228;2023-04-24T05:26:55;99361.06;;;10.54;59.81
36254;BME280;22291;52.250;21.228;2023-04-24T05:29:24;99362.70;;;10.67;59.78
36254;BME280;22291;52.250;21.228;2023-04-24T05:31:52;99360.28;;;10.80;59.79
36254;BME280;22291;52.250;21.228;2023-04-24T05:34:18;99360.79;;;10.95;59.73
36254;BME280;22291;52.250;21.228;2023-04-24T05:36:44;99360.36;;;11.11;59.83
36254;BME280;22291;52.250;21.228;2023-04-24T05:39:11;99349.45;;;11.26;59.31
36254;BME280;22291;52.250;21.228;2023-04-24T05:41:37;99358.39;;;11.45;59.23
36254;BME280;22291;52.250;21.228;2023-04-24T05:44:03;99349.83;;;11.62;58.99
36254;BME280;22291;52.250;21.228;2023-04-24T05:46:29;99354.23;;;11.78;58.49
36254;BME280;22291;52.250;21.228;2023-04-24T05:48:56;99351.41;;;11.93;58.25
36254;BME280;22291;52.250;21.228;2023-04-24T05:51:24;99359.74;;;12.13;57.92
36254;BME280;22291;52.250;21.228;2023-04-24T05:53:51;99356.08;;;12.27;57.53
36254;BME280;22291;52.250;21.228;2023-04-24T05:56:18;99356.72;;;12.43;57.20
36254;BME280;22291;52.250;21.228;2023-04-24T05:58:46;99355.30;;;12.61;56.83
36254;BME280;22291;52.250;21.228;2023-04-24T06:01:13;99354.66;;;12.80;56.37
36254;BME280;22291;52.250;21.228;2023-04-24T06:03:41;99352.31;;;13.01;56.07
36254;BME280;22291;52.250;21.228;2023-04-24T06:06:08;99345.50;;;13.23;55.81
36254;BME280;22291;52.250;21.228;2023-04-24T06:08:35;99353.73;;;13.49;55.56
36254;BME280;22291;52.250;21.228;2023-04-24T06:11:01;99356.89;;;13.76;54.88
36254;BME280;22291;52.250;21.228;2023-04-24T06:13:28;99356.08;;;13.92;54.01
36254;BME280;22291;52.250;21.228;2023-04-24T06:15:54;99353.89;;;14.07;53.69
36254;BME280;22291;52.250;21.228;2023-04-24T06:18:20;99354.29;;;14.25;53.27
36254;BME280;22291;52.250;21.228;2023-04-24T06:20:46;99351.78;;;14.36;52.42
36254;BME280;22291;52.250;21.228;2023-04-24T06:23:13;99352.06;;;14.50;52.62
36254;BME280;22291;52.250;21.228;2023-04-24T06:25:39;99348.15;;;14.77;52.64
36254;BME280;22291;52.250;21.228;2023-04-24T06:28:05;99343.11;;;14.99;51.74
36254;BME280;22291;52.250;21.228;2023-04-24T06:30:31;99334.16;;;15.21;51.71
36254;BME280;22291;52.250;21.228;2023-04-24T06:32:58;99331.27;;;15.47;51.18
36254;BME280;22291;52.250;21.228;2023-04-24T06:35:24;99331.37;;;15.67;50.66
36254;BME280;22291;52.250;21.228;2023-04-24T06:37:51;99321.78;;;15.87;50.53
36254;BME280;22291;52.250;21.228;2023-04-24T06:40:17;99327.77;;;16.13;49.65
36254;BME280;22291;52.250;21.228;2023-04-24T06:42:46;99325.28;;;16.31;48.97
36254;BME280;22291;52.250;21.228;2023-04-24T06:45:13;99316.92;;;16.51;48.93
36254;BME280;22291;52.250;21.228;2023-04-24T06:47:39;99317.86;;;16.83;48.40
36254;BME280;22291;52.250;21.228;2023-04-24T06:50:06;99324.38;;;17.08;47.87
36254;BME280;22291;52.250;21.228;2023-04-24T06:52:32;99318.36;;;17.36;47.43
36254;BME280;22291;52.250;21.228;2023-04-24T06:55:02;99320.31;;;17.64;47.15
36254;BME280;22291;52.250;21.228;2023-04-24T06:57:29;99325.22;;;17.92;46.29
36254;BME280;22291;52.250;21.228;2023-04-24T06:59:57;99323.54;;;18.08;45.66
36254;BME280;22291;52.250;21.228;2023-04-24T07:02:24;99321.05;;;18.16;45.40
36254;BME280;22291;52.250;21.228;2023-04-24T07:04:51;99327.36;;;18.27;45.21
36254;BME280;22291;52.250;21.228;2023-04-24T07:07:18;99325.23;;;18.31;45.20
36254;BME280;22291;52.250;21.228;2023-04-24T07:09:44;99321.55;;;18.43;44.93
36254;BME280;22291;52.250;21.228;2023-04-24T07:12:11;99318.05;;;18.50;45.02
36254;BME280;22291;52.250;21.228;2023-04-24T07:14:38;99327.12;;;18.76;44.79
36254;BME280;22291;52.250;21.228;2023-04-24T07:17:05;99326.22;;;18.89;43.72
36254;BME280;22291;52.250;21.228;2023-04-24T07:19:33;99322.71;;;19.02;43.87
36254;BME280;22291;52.250;21.228;2023-04-24T07:22:03;99318.80;;;19.29;44.00
36254;BME280;22291;52.250;21.228;2023-04-24T07:24:30;99320.38;;;19.51;43.38
36254;BME280;22291;52.250;21.228;2023-04-24T07:26:58;99310.75;;;19.87;43.69
36254;BME280;22291;52.250;21.228;2023-04-24T07:29:26;99305.48;;;20.32;43.57
36254;BME280;22291;52.250;21.228;2023-04-24T07:31:52;99306.19;;;20.92;43.28
36254;BME280;22291;52.250;21.228;2023-04-24T07:34:20;99312.00;;;21.53;42.56
36254;BME280;22291;52.250;21.228;2023-04-24T07:36:46;99301.98;;;22.12;41.61
36254;BME280;22291;52.250;21.228;2023-04-24T07:39:12;99307.87;;;22.60;40.54
36254;BME280;22291;52.250;21.228;2023-04-24T07:41:39;99306.64;;;23.07;40.06
36254;BME280;22291;52.250;21.228;2023-04-24T07:44:05;99308.04;;;23.43;38.18
36254;BME280;22291;52.250;21.228;2023-04-24T07:46:31;99303.92;;;23.63;37.27
36254;BME280;22291;52.250;21.228;2023-04-24T07:48:58;99305.47;;;23.76;35.86
36254;BME280;22291;52.250;21.228;2023-04-24T07:51:26;99294.32;;;23.83;35.53
36254;BME280;22291;52.250;21.228;2023-04-24T07:53:53;99295.07;;;24.15;36.04
36254;BME280;22291;52.250;21.228;2023-04-24T07:56:22;99295.09;;;24.52;34.72
36254;BME280;22291;52.250;21.228;2023-04-24T07:58:48;99295.67;;;24.63;33.93
36254;BME280;22291;52.250;21.228;2023-04-24T08:01:14;99285.46;;;24.60;33.49
36254;BME280;22291;52.250;21.228;2023-04-24T08:03:41;99281.88;;;24.51;32.76
36254;BME280;22291;52.250;21.228;2023-04-24T08:06:07;99289.69;;;24.56;33.21
36254;BME280;22291;52.250;21.228;2023-04-24T08:08:33;99278.73;;;24.61;32.68
36254;BME280;22291;52.250;21.228;2023-04-24T08:11:00;99277.56;;;24.95;33.97
36254;BME280;22291;52.250;21.228;2023-04-24T08:13:26;99284.16;;;25.34;33.38
36254;BME280;22291;52.250;21.228;2023-04-24T08:15:53;99279.81;;;25.79;32.98
36254;BME280;22291;52.250;21.228;2023-04-24T08:18:19;99280.94;;;26.11;32.45
36254;BME280;22291;52.250;21.228;2023-04-24T08:20:45;99279.48;;;26.40;30.93
36254;BME280;22291;52.250;21.228;2023-04-24T08:23:11;99280.94;;;26.44;30.81
36254;BME280;22291;52.250;21.228;2023-04-24T08:25:38;99279.11;;;26.46;30.64
36254;BME280;22291;52.250;21.228;2023-04-24T08:28:05;99281.20;;;26.29;30.18
36254;BME280;22291;52.250;21.228;2023-04-24T08:30:32;99278.77;;;26.31;30.39
36254;BME280;22291;52.250;21.228;2023-04-24T08:32:58;99287.98;;;26.54;30.11
36254;BME280;22291;52.250;21.228;2023-04-24T08:35:25;99273.37;;;26.66;30.32
36254;BME280;22291;52.250;21.228;2023-04-24T08:37:52;99278.20;;;27.13;30.51
36254;BME280;22291;52.250;21.228;2023-04-24T08:40:22;99275.56;;;27.57;30.28
36254;BME280;22291;52.250;21.228;2023-04-24T08:42:53;99277.03;;;28.06;29.68
36254;BME280;22291;52.250;21.228;2023-04-24T08:45:21;99271.31;;;28.63;29.17
36254;BME280;22291;52.250;21.228;2023-04-24T08:50:59;99267.42;;;28.56;27.25
36254;BME280;22291;52.250;21.228;2023-04-24T08:53:30;99263.93;;;28.69;27.25
36254;BME280;22291;52.250;21.228;2023-04-24T08:56:01;99260.04;;;28.67;27.05
36254;BME280;22291;52.250;21.228;2023-04-24T08:58:31;99253.65;;;29.02;27.48
36254;BME280;22291;52.250;21.228;2023-04-24T09:00:59;99256.97;;;29.38;26.80
36254;BME280;22291;52.250;21.228;2023-04-24T09:03:28;99259.14;;;29.29;25.32
36254;BME280;22291;52.250;21.228;2023-04-24T09:05:57;99249.17;;;29.10;25.79
36254;BME280;22291;52.250;21.228;2023-04-24T09:08:26;99249.95;;;29.15;26.46
36254;BME280;22291;52.250;21.228;2023-04-24T09:10:54;99252.03;;;29.37;25.74
36254;BME280;22291;52.250;21.228;2023-04-24T09:13:23;99253.27;;;29.41;25.97
36254;BME280;22291;52.250;21.228;2023-04-24T09:15:51;99254.02;;;29.74;26.14
36254;BME280;22291;52.250;21.228;2023-04-24T09:18:20;99249.95;;;30.12;25.35
36254;BME280;22291;52.250;21.228;2023-04-24T09:21:03;99257.28;;;29.86;24.69
36254;BME280;22291;52.250;21.228;2023-04-24T09:23:34;99249.71;;;29.82;24.85
36254;BME280;22291;52.250;21.228;2023-04-24T09:26:03;99251.40;;;29.70;24.02
36254;BME280;22291;52.250;21.228;2023-04-24T09:28:34;99249.24;;;29.23;24.49
36254;BME280;22291;52.250;21.228;2023-04-24T09:33:56;99241.77;;;29.16;25.66
36254;BME280;22291;52.250;21.228;2023-04-24T09:36:34;99238.39;;;29.67;25.42
36254;BME280;22291;52.250;21.228;2023-04-24T09:39:13;99240.57;;;29.58;24.94
36254;BME280;22291;52.250;21.228;2023-04-24T09:41:53;99237.48;;;29.42;25.08
36254;BME280;22291;52.250;21.228;2023-04-24T09:44:26;99235.78;;;29.36;25.21
36254;BME280;22291;52.250;21.228;2023-04-24T09:46:57;99230.78;;;29.12;25.04
36254;BME280;22291;52.250;21.228;2023-04-24T09:49:28;99235.42;;;29.01;24.91
36254;BME280;22291;52.250;21.228;2023-04-24T09:52:10;99244.34;;;28.87;24.43
36254;BME280;22291;52.250;21.228;2023-04-24T09:54:39;99232.52;;;28.60;24.76
36254;BME280;22291;52.250;21.228;2023-04-24T09:57:09;99239.30;;;28.27;24.73
36254;BME280;22291;52.250;21.228;2023-04-24T09:59:45;99233.20;;;28.10;24.88
36254;BME280;22291;52.250;21.228;2023-04-24T10:02:19;99231.40;;;27.72;25.04
36254;BME280;22291;52.250;21.228;2023-04-24T10:04:54;99232.33;;;27.52;25.48
36254;BME280;22291;52.250;21.228;2023-04-24T10:07:25;99222.50;;;27.25;25.70
36254;BME280;22291;52.250;21.228;2023-04-24T10:09:52;99218.61;;;26.88;25.86
36254;BME280;22291;52.250;21.228;2023-04-24T10:12:22;99225.54;;;26.62;26.53
36254;BME280;22291;52.250;21.228;2023-04-24T10:14:53;99222.98;;;26.63;26.49
36254;BME280;22291;52.250;21.228;2023-04-24T10:17:21;99222.21;;;26.80;26.72
36254;BME280;22291;52.250;21.228;2023-04-24T10:19:49;99220.95;;;27.07;26.21
36254;BME280;22291;52.250;21.228;2023-04-24T10:22:19;99228.28;;;27.31;26.14
36254;BME280;22291;52.250;21.228;2023-04-24T10:24:47;99231.06;;;27.48;25.42
36254;BME280;22291;52.250;21.228;2023-04-24T10:27:17;99210.95;;;27.27;26.01
36254;BME280;22291;52.250;21.228;2023-04-24T10:29:46;99213.38;;;27.77;26.33
36254;BME280;22291;52.250;21.228;2023-04-24T10:32:13;99208.95;;;28.11;25.70
36254;BME280;22291;52.250;21.228;2023-04-24T10:34:41;99200.95;;;28.13;25.48
36254;BME280;22291;52.250;21.228;2023-04-24T10:37:07;99204.11;;;27.75;25.13
36254;BME280;22291;52.250;21.228;2023-04-24T10:39:38;99201.13;;;27.13;25.61
36254;BME280;22291;52.250;21.228;2023-04-24T10:42:17;99196.34;;;26.65;26.25
36254;BME280;22291;52.250;21.228;2023-04-24T10:44:48;99199.94;;;26.71;26.92
36254;BME280;22291;52.250;21.228;2023-04-24T10:47:15;99184.55;;;26.87;26.20
36254;BME280;22291;52.250;21.228;2023-04-24T10:49:43;99191.32;;;26.47;26.40
36254;BME280;22291;52.250;21.228;2023-04-24T10:52:10;99183.39;;;26.03;26.38
36254;BME280;22291;52.250;21.228;2023-04-24T10:54:46;99185.86;;;25.71;26.80
36254;BME280;22291;52.250;21.228;2023-04-24T11:00:09;99180.97;;;25.25;28.60
36254;BME280;22291;52.250;21.228;2023-04-24T11:02:40;99185.37;;;25.23;29.63
36254;BME280;22291;52.250;21.228;2023-04-24T11:05:18;99169.97;;;25.38;30.41
36254;BME280;22291;52.250;21.228;2023-04-24T11:08:15;99178.30;;;25.59;29.13
36254;BME280;22291;52.250;21.228;2023-04-24T11:13:17;99178.30;;;25.22;29.45
36254;BME280;22291;52.250;21.228;2023-04-24T11:16:14;99176.87;;;24.84;29.49
36254;BME280;22291;52.250;21.228;2023-04-24T11:22:01;99169.39;;;23.87;30.12
36254;BME280;22291;52.250;21.228;2023-04-24T11:24:49;99171.13;;;23.69;30.89
36254;BME280;22291;52.250;21.228;2023-04-24T11:27:21;99164.74;;;23.92;29.92
36254;BME280;22291;52.250;21.228;2023-04-24T11:35:04;99163.37;;;24.53;30.84
36254;BME280;22291;52.250;21.228;2023-04-24T11:37:43;99174.10;;;24.84;30.09
36254;BME280;22291;52.250;21.228;2023-04-24T11:40:14;99161.11;;;25.06;29.79
36254;BME280;22291;52.250;21.228;2023-04-24T11:42:44;99157.47;;;25.54;28.40
36254;BME280;22291;52.250;21.228;2023-04-24T11:45:16;99160.31;;;25.59;28.93
36254;BME280;22291;52.250;21.228;2023-04-24T11:47:46;99159.52;;;26.01;28.64
36254;BME280;22291;52.250;21.228;2023-04-24T11:50:18;99152.94;;;26.16;27.90
36254;BME280;22291;52.250;21.228;2023-04-24T11:52:49;99157.05;;;25.90;27.51
36254;BME280;22291;52.250;21.228;2023-04-24T11:57:50;99155.48;;;25.09;27.83
36254;BME280;22291;52.250;21.228;2023-04-24T12:03:10;99145.58;;;24.21;27.14
36254;BME280;22291;52.250;21.228;2023-04-24T12:05:34;99138.75;;;23.81;27.46
36254;BME280;22291;52.250;21.228;2023-04-24T12:08:04;99145.56;;;23.57;27.36
36254;BME280;22291;52.250;21.228;2023-04-24T12:10:33;99145.20;;;23.35;27.85
36254;BME280;22291;52.250;21.228;2023-04-24T12:13:00;99143.45;;;23.33;28.63
36254;BME280;22291;52.250;21.228;2023-04-24T12:15:28;99137.16;;;23.72;29.22
36254;BME280;22291;52.250;21.228;2023-04-24T12:17:58;99142.38;;;24.15;27.96
36254;BME280;22291;52.250;21.228;2023-04-24T12:20:28;99131.43;;;24.52;27.89
36254;BME280;22291;52.250;21.228;2023-04-24T12:23:00;99129.95;;;24.80;27.29
36254;BME280;22291;52.250;21.228;2023-04-24T12:25:28;99138.00;;;24.67;26.35
36254;BME280;22291;52.250;21.228;2023-04-24T12:30:47;99130.53;;;24.14;25.74
36254;BME280;22291;52.250;21.228;2023-04-24T12:33:18;99121.71;;;23.75;26.29
36254;BME280;22291;52.250;21.228;2023-04-24T12:35:46;99126.63;;;23.47;27.04
36254;BME280;22291;52.250;21.228;2023-04-24T12:38:14;99122.25;;;23.29;27.34
36254;BME280;22291;52.250;21.228;2023-04-24T12:40:42;99122.25;;;23.29;27.65
36254;BME280;22291;52.250;21.228;2023-04-24T12:43:16;99116.66;;;23.33;27.92
36254;BME280;22291;52.250;21.228;2023-04-24T12:45:44;99107.34;;;23.55;28.77
36254;BME280;22291;52.250;21.228;2023-04-24T12:48:11;99104.30;;;24.22;29.47
36254;BME280;22291;52.250;21.228;2023-04-24T12:50:40;99105.28;;;25.03;28.82
36254;BME280;22291;52.250;21.228;2023-04-24T12:53:07;99100.10;;;25.55;27.56
36254;BME280;22291;52.250;21.228;2023-04-24T12:55:35;99095.56;;;26.08;27.20
36254;BME280;22291;52.250;21.228;2023-04-24T12:58:02;99096.55;;;26.57;26.56
36254;BME280;22291;52.250;21.228;2023-04-24T13:00:29;99092.13;;;26.95;26.32
36254;BME280;22291;52.250;21.228;2023-04-24T13:02:55;99089.52;;;27.35;26.39
36254;BME280;22291;52.250;21.228;2023-04-24T13:05:22;99101.92;;;27.75;25.90
36254;BME280;22291;52.250;21.228;2023-04-24T13:07:48;99133.72;;;27.74;24.36
36254;BME280;22291;52.250;21.228;2023-04-24T13:10:14;99114.34;;;27.34;25.02
36254;BME280;22291;52.250;21.228;2023-04-24T13:12:40;99114.78;;;26.76;25.46
36254;BME280;22291;52.250;21.228;2023-04-24T13:15:08;99126.47;;;26.32;25.95
36254;BME280;22291;52.250;21.228;2023-04-24T13:17:34;99142.84;;;25.75;26.67
36254;BME280;22291;52.250;21.228;2023-04-24T13:20:01;99142.27;;;25.09;27.54
36254;BME280;22291;52.250;21.228;2023-04-24T13:22:28;99147.31;;;24.48;27.86
36254;BME280;22291;52.250;21.228;2023-04-24T13:24:54;99159.86;;;24.00;28.45